Time;durP1;ratioP1;P1;durP2;ratioP2;P2;SDS_P1;SDS_P2;PMS_P1;PMS_P2;Temp;Humidity;BMP_temperature;BMP_pressure;BME280_temperature;BME280_humidity;BME280_pressure;Samples;Min_cycle;Max_cycle;Signal;HPM_P1;HPM_P2
2023/05/31 00:01:01;;;;;;;14.57;9.35;;;;;;;18.29;100.00;101071.03;2097635;28;20048;-76
2023/05/31 00:02:24;;;;;;;14.73;9.50;;;;;;;18.31;100.00;101071.91;2099659;28;20044;-75
2023/05/31 00:03:45;;;;;;;13.85;9.60;;;;;;;18.32;100.00;101068.31;2117129;27;20047;-76
2023/05/31 00:05:09;;;;;;;14.30;9.45;;;;;;;18.33;100.00;101065.63;2105290;28;20046;-76
2023/05/31 00:06:31;;;;;;;15.95;9.05;;;;;;;18.33;100.00;101067.41;2108676;28;20071;-76
2023/05/31 00:07:54;;;;;;;13.77;9.48;;;;;;;18.32;100.00;101071.88;2109479;28;20048;-76
2023/05/31 00:09:15;;;;;;;13.90;9.25;;;;;;;18.30;100.00;101068.34;2107184;28;20503;-76
2023/05/31 00:10:39;;;;;;;14.55;8.57;;;;;;;18.29;100.00;101063.00;2094346;28;20052;-76
2023/05/31 00:12:01;;;;;;;12.20;8.82;;;;;;;18.27;100.00;101054.13;2102223;28;20122;-76
2023/05/31 00:13:24;;;;;;;16.65;9.45;;;;;;;18.28;100.00;101058.56;2107061;28;20047;-76
2023/05/31 00:14:46;;;;;;;13.77;9.15;;;;;;;18.27;100.00;101057.66;2111156;28;20447;-76
2023/05/31 00:16:08;;;;;;;14.07;8.95;;;;;;;18.26;100.00;101055.91;2104956;28;20138;-76
2023/05/31 00:17:31;;;;;;;15.63;9.70;;;;;;;18.26;100.00;101055.00;2096108;28;20045;-75
2023/05/31 00:18:52;;;;;;;18.50;9.90;;;;;;;18.25;100.00;101056.78;2099399;28;20051;-76
2023/05/31 00:20:14;;;;;;;14.75;9.73;;;;;;;18.24;100.00;101047.03;2110950;27;20055;-75
2023/05/31 00:21:36;;;;;;;14.32;9.85;;;;;;;18.22;100.00;101051.50;2105185;28;20032;-76
2023/05/31 00:22:59;;;;;;;16.10;10.35;;;;;;;18.22;100.00;101047.94;2094528;28;20117;-75
2023/05/31 00:24:22;;;;;;;17.02;10.65;;;;;;;18.20;100.00;101045.28;2099973;28;20044;-76
2023/05/31 00:25:46;;;;;;;16.45;10.38;;;;;;;18.18;100.00;101047.06;2102445;28;20079;-75
2023/05/31 00:27:07;;;;;;;14.40;9.80;;;;;;;18.17;100.00;101052.47;2109857;28;20455;-76
2023/05/31 00:28:29;;;;;;;15.18;10.20;;;;;;;18.16;100.00;101054.25;2093510;28;20056;-75
2023/05/31 00:29:52;;;;;;;16.77;10.48;;;;;;;18.15;100.00;101044.44;2100958;28;20051;-76
2023/05/31 00:31:14;;;;;;;18.05;10.48;;;;;;;18.15;100.00;101047.13;2102758;28;20052;-76
2023/05/31 00:32:36;;;;;;;13.82;9.55;;;;;;;18.14;100.00;101047.13;2095441;28;20047;-75
2023/05/31 00:33:58;;;;;;;15.32;10.32;;;;;;;18.13;100.00;101046.25;2110716;28;20070;-76
2023/05/31 00:35:20;;;;;;;16.65;10.02;;;;;;;18.12;100.00;101047.13;2093381;28;20404;-76
2023/05/31 00:36:43;;;;;;;15.93;9.23;;;;;;;18.13;100.00;101042.69;2093547;28;20048;-75
2023/05/31 00:38:05;;;;;;;15.68;9.90;;;;;;;18.11;100.00;101034.72;2108167;28;20058;-75
2023/05/31 00:39:28;;;;;;;19.08;9.57;;;;;;;18.10;100.00;101035.59;2113376;28;20075;-75
2023/05/31 00:40:52;;;;;;;17.27;10.20;;;;;;;18.09;100.00;101025.81;2109700;28;20591;-76
2023/05/31 00:42:15;;;;;;;17.25;10.32;;;;;;;18.08;100.00;101029.38;2110976;28;20067;-76
2023/05/31 00:43:37;;;;;;;18.13;10.10;;;;;;;18.07;100.00;101027.59;2094876;28;20423;-75
2023/05/31 00:44:59;;;;;;;14.80;9.85;;;;;;;18.05;100.00;101029.41;2092935;28;20067;-76
2023/05/31 00:46:27;;;;;;;16.30;9.90;;;;;;;18.06;100.00;101028.50;2107855;28;20043;-76
2023/05/31 00:47:49;;;;;;;17.83;10.55;;;;;;;18.06;100.00;101020.50;2094727;28;20041;-76
2023/05/31 00:49:12;;;;;;;16.65;10.43;;;;;;;18.07;100.00;101026.72;2098945;28;20044;-77
2023/05/31 00:50:35;;;;;;;12.60;9.77;;;;;;;18.07;100.00;101032.06;2098971;28;20491;-76
2023/05/31 00:51:58;;;;;;;13.65;10.55;;;;;;;18.07;100.00;101029.38;2102610;28;20121;-75
2023/05/31 00:53:23;;;;;;;13.05;10.02;;;;;;;18.04;100.00;101032.13;2102642;28;20508;-77
2023/05/31 00:54:45;;;;;;;15.43;9.95;;;;;;;18.01;100.00;101026.78;2107094;28;20395;-76
2023/05/31 00:56:09;;;;;;;14.65;9.75;;;;;;;17.99;100.00;101029.47;2110679;28;20097;-76
2023/05/31 00:57:32;;;;;;;15.60;10.18;;;;;;;17.97;100.00;101033.09;2102413;28;20516;-76
2023/05/31 00:58:55;;;;;;;16.08;10.07;;;;;;;17.94;100.00;101031.31;2107117;28;20047;-75
2023/05/31 01:00:18;;;;;;;15.63;9.23;;;;;;;17.93;100.00;101033.09;2106772;28;20036;-75
2023/05/31 01:01:41;;;;;;;15.23;9.40;;;;;;;17.91;100.00;101039.38;2118612;27;20051;-77
2023/05/31 01:03:03;;;;;;;14.02;9.48;;;;;;;17.89;100.00;101039.38;2104069;28;20040;-75
2023/05/31 01:04:26;;;;;;;13.77;9.57;;;;;;;17.88;100.00;101042.06;2096272;28;20029;-76
2023/05/31 01:05:49;;;;;;;15.88;10.00;;;;;;;17.88;100.00;101040.28;2099957;28;20108;-76
2023/05/31 01:07:12;;;;;;;14.88;9.32;;;;;;;17.89;100.00;101046.50;2101118;28;20051;-77
2023/05/31 01:08:33;;;;;;;15.98;10.63;;;;;;;17.90;100.00;101045.63;2096641;28;20059;-76
2023/05/31 01:09:56;;;;;;;13.43;9.88;;;;;;;17.90;100.00;101046.50;2098608;28;20059;-76
2023/05/31 01:11:26;;;;;;;14.20;10.05;;;;;;;17.91;100.00;101050.94;2102226;28;20152;-76
2023/05/31 01:12:57;;;;;;;15.43;9.75;;;;;;;17.91;100.00;101050.94;2103136;28;20087;-76
2023/05/31 01:14:28;;;;;;;13.98;9.40;;;;;;;17.90;100.00;101051.84;2095734;28;20048;-76
2023/05/31 01:15:58;;;;;;;12.65;8.95;;;;;;;17.90;100.00;101045.63;2101760;28;20146;-76
2023/05/31 01:17:30;;;;;;;15.18;9.38;;;;;;;17.84;100.00;101040.34;2106371;28;20042;-77
2023/05/31 01:19:02;;;;;;;15.95;9.10;;;;;;;17.78;100.00;101035.06;2110075;28;20463;-77
2023/05/31 01:20:27;;;;;;;13.68;9.38;;;;;;;17.76;100.00;101036.84;2106841;28;20665;-76
2023/05/31 01:22:14;;;;;;;13.90;9.02;;;;;;;17.80;100.00;101038.56;2093986;28;20053;-77
2023/05/31 01:23:49;;;;;;;15.32;9.02;;;;;;;17.82;100.00;101036.78;2112660;28;20096;-76
2023/05/31 01:25:27;;;;;;;16.90;10.18;;;;;;;17.86;100.00;101033.16;2107063;28;20051;-76
2023/05/31 01:26:51;;;;;;;15.30;9.82;;;;;;;17.88;100.00;101031.38;2096157;28;20052;-76
2023/05/31 01:28:14;;;;;;;13.90;8.88;;;;;;;17.86;100.00;101028.72;2100288;28;20168;-76
2023/05/31 01:29:40;;;;;;;14.48;9.45;;;;;;;17.86;100.00;101033.16;2107561;28;20419;-76
2023/05/31 01:31:04;;;;;;;13.32;8.40;;;;;;;17.83;100.00;101030.53;2101565;28;20055;-76
2023/05/31 01:32:28;;;;;;;15.00;9.43;;;;;;;17.80;100.00;101028.78;2097058;28;20066;-75
2023/05/31 01:33:51;;;;;;;15.20;9.45;;;;;;;17.83;100.00;101031.44;2090712;28;20082;-77
2023/05/31 01:35:13;;;;;;;14.77;8.57;;;;;;;17.82;100.00;101029.66;2099536;28;20075;-75
2023/05/31 01:36:36;;;;;;;16.17;9.80;;;;;;;17.82;100.00;101028.75;2099042;28;20484;-76
2023/05/31 01:37:57;;;;;;;13.93;10.18;;;;;;;17.83;100.00;101035.88;2108171;28;20102;-76
2023/05/31 01:39:21;;;;;;;15.50;10.25;;;;;;;17.82;100.00;101037.66;2112981;28;20044;-76
2023/05/31 01:40:43;;;;;;;17.10;11.25;;;;;;;17.80;100.00;101038.56;2104675;28;20040;-76
2023/05/31 01:42:10;;;;;;;17.50;11.13;;;;;;;17.76;100.00;101031.50;2107936;28;20044;-75
2023/05/31 01:43:32;;;;;;;15.27;9.88;;;;;;;17.73;100.00;101035.06;2088174;28;20072;-76
2023/05/31 01:44:56;;;;;;;14.57;9.80;;;;;;;17.73;100.00;101032.41;2097332;28;20044;-77
2023/05/31 01:46:18;;;;;;;14.98;9.68;;;;;;;17.73;100.00;101028.84;2094059;28;20086;-76
2023/05/31 01:47:44;;;;;;;16.55;10.77;;;;;;;17.72;100.00;101035.97;2102015;28;20078;-76
2023/05/31 01:49:07;;;;;;;17.52;10.45;;;;;;;17.71;100.00;101033.34;2093916;28;20495;-75
2023/05/31 01:50:29;;;;;;;17.67;10.30;;;;;;;17.72;100.00;101030.63;2099723;28;20500;-75
2023/05/31 01:51:52;;;;;;;16.08;10.80;;;;;;;17.73;100.00;101032.41;2101368;28;20420;-76
2023/05/31 01:53:13;;;;;;;14.77;9.35;;;;;;;17.75;100.00;101032.41;2091268;28;20052;-75
2023/05/31 01:54:37;;;;;;;17.02;9.98;;;;;;;17.76;100.00;101040.41;2102584;28;20046;-76
2023/05/31 01:56:00;;;;;;;19.40;11.23;;;;;;;17.76;100.00;101040.41;2102048;28;20089;-77
2023/05/31 01:57:26;;;;;;;15.95;10.38;;;;;;;17.77;100.00;101043.97;2115992;28;20039;-77
2023/05/31 01:58:50;;;;;;;14.75;9.85;;;;;;;17.77;100.00;101043.97;2098453;28;20102;-76
2023/05/31 02:00:14;;;;;;;15.63;10.63;;;;;;;17.78;100.00;101043.06;2098512;28;20044;-75
2023/05/31 02:01:38;;;;;;;14.55;10.52;;;;;;;17.78;100.00;101040.41;2102024;28;20040;-76
2023/05/31 02:03:01;;;;;;;15.88;10.10;;;;;;;17.78;100.00;101037.72;2093968;28;20056;-76
2023/05/31 02:04:22;;;;;;;15.98;10.25;;;;;;;17.79;100.00;101034.13;2102149;28;20558;-76
2023/05/31 05:39:18;;;;;;;12.10;6.22;;;;;;;23.19;100.00;101172.06;2098463;27;20403;-75
2023/05/31 05:40:42;;;;;;;12.50;5.47;;;;;;;23.37;100.00;101169.69;2094786;28;20072;-75
2023/05/31 05:42:05;;;;;;;10.27;6.03;;;;;;;23.58;100.00;101167.28;2084477;28;20065;-74
2023/05/31 05:43:30;;;;;;;7.78;5.57;;;;;;;23.79;100.00;101161.22;2084340;28;20103;-74
2023/05/31 05:45:08;;;;;;;10.27;5.50;;;;;;;24.03;100.00;101159.53;2085993;28;20098;-75
2023/05/31 05:46:31;;;;;;;11.00;5.80;;;;;;;24.22;100.00;101155.28;2083260;28;20183;-75
2023/05/31 05:47:55;;;;;;;8.57;5.28;;;;;;;24.41;100.00;101152.88;2083777;28;20041;-74
2023/05/31 05:49:18;;;;;;;9.70;5.38;;;;;;;24.60;100.00;101154.84;2090538;28;20041;-75
2023/05/31 05:50:42;;;;;;;11.50;5.75;;;;;;;24.81;100.00;101149.63;2084970;28;20057;-75
2023/05/31 05:52:05;;;;;;;12.15;6.22;;;;;;;24.99;100.00;101146.25;2086087;28;20052;-75
2023/05/31 05:53:28;;;;;;;10.48;6.28;;;;;;;25.18;100.00;101147.31;2081649;28;20512;-75
2023/05/31 05:54:50;;;;;;;8.30;5.28;;;;;;;25.37;100.00;101145.66;2080567;28;20485;-75
2023/05/31 05:56:17;;;;;;;7.80;5.70;;;;;;;25.52;100.00;101151.38;2083010;28;21215;-75
2023/05/31 05:57:47;;;;;;;9.35;5.13;;;;;;;25.69;100.00;101146.22;2084582;28;20049;-75
2023/05/31 05:59:28;;;;;;;10.30;5.38;;;;;;;25.88;100.00;101147.22;2092581;28;20117;-75
2023/05/31 06:01:02;;;;;;;8.25;4.70;;;;;;;26.06;100.00;101138.31;2092989;28;20455;-75
2023/05/31 06:02:25;;;;;;;8.38;4.93;;;;;;;26.27;100.00;101151.91;2083858;28;20073;-75
2023/05/31 06:03:51;;;;;;;10.68;5.25;;;;;;;26.44;100.00;101152.06;2083530;28;20128;-75
2023/05/31 06:05:13;;;;;;;7.05;4.38;;;;;;;26.62;100.00;101151.25;2075955;28;20140;-75
2023/05/31 06:06:36;;;;;;;14.80;4.95;;;;;;;26.67;100.00;101149.22;2094673;28;20052;-75
2023/05/31 06:07:58;;;;;;;7.47;4.20;;;;;;;26.64;100.00;101145.78;2089023;28;20090;-75
2023/05/31 06:09:23;;;;;;;8.77;4.60;;;;;;;26.66;100.00;101147.44;2075959;28;20046;-74
2023/05/31 06:10:48;;;;;;;11.60;4.50;;;;;;;26.71;100.00;101153.56;2078462;28;20534;-75
2023/05/31 06:12:11;;;;;;;11.38;5.18;;;;;;;26.73;100.00;101153.47;2082167;28;20053;-75
2023/05/31 06:13:36;;;;;;;7.03;5.03;;;;;;;26.78;100.00;101157.72;2082650;28;20390;-75
2023/05/31 06:15:00;;;;;;;7.88;5.13;;;;;;;26.83;100.00;101154.84;2090259;28;20521;-76
2023/05/31 06:16:25;;;;;;;9.15;4.95;;;;;;;26.81;100.00;101165.72;2080338;28;20049;-74
2023/05/31 06:17:48;;;;;;;11.35;5.07;;;;;;;26.77;100.00;101166.84;2081423;28;20472;-76
2023/05/31 06:19:11;;;;;;;8.63;5.13;;;;;;;26.79;100.00;101164.03;2089041;28;20063;-75
2023/05/31 06:20:34;;;;;;;10.88;4.53;;;;;;;26.86;100.00;101170.94;2084318;28;20049;-75
2023/05/31 06:21:57;;;;;;;8.23;4.35;;;;;;;26.91;100.00;101167.09;2080550;28;20041;-75
2023/05/31 06:23:20;;;;;;;9.63;4.53;;;;;;;26.93;100.00;101170.63;2079556;28;20115;-75
2023/05/31 06:24:43;;;;;;;7.40;4.40;;;;;;;26.94;99.22;101179.63;2089806;28;20158;-75
2023/05/31 06:26:07;;;;;;;6.25;4.63;;;;;;;27.04;98.38;101172.88;2092714;28;20049;-74
2023/05/31 06:27:29;;;;;;;8.02;4.10;;;;;;;27.14;98.51;101167.88;2087490;28;20110;-75
2023/05/31 06:28:52;;;;;;;9.88;5.07;;;;;;;27.18;96.77;101167.66;2082009;28;20096;-75
2023/05/31 06:30:33;;;;;;;8.52;4.68;;;;;;;27.20;97.49;101167.59;2099368;28;20136;-75
2023/05/31 06:31:57;;;;;;;7.57;4.88;;;;;;;27.11;99.09;101170.75;2086264;28;20082;-75
2023/05/31 06:33:20;;;;;;;7.97;4.60;;;;;;;27.18;100.00;101183.94;2094965;28;20575;-75
2023/05/31 06:34:43;;;;;;;9.13;4.78;;;;;;;27.23;97.59;101176.47;2095066;28;20095;-75
2023/05/31 06:36:06;;;;;;;8.57;5.13;;;;;;;27.14;97.24;101187.75;2082664;28;20563;-75
2023/05/31 06:37:29;;;;;;;6.97;5.00;;;;;;;26.98;99.57;101180.41;2088460;28;20299;-74
2023/05/31 06:38:51;;;;;;;8.30;5.15;;;;;;;26.76;100.00;101183.16;2081806;28;20137;-74
2023/05/31 06:40:14;;;;;;;7.03;4.90;;;;;;;26.51;100.00;101181.53;2086200;28;20044;-74
2023/05/31 06:41:40;;;;;;;8.80;5.13;;;;;;;26.37;100.00;101174.94;2085749;28;20061;-74
2023/05/31 06:43:22;;;;;;;10.57;5.65;;;;;;;26.20;100.00;101172.91;2094205;28;20040;-75
2023/05/31 06:45:20;;;;;;;6.93;4.70;;;;;;;26.17;100.00;101173.06;2076370;28;20502;-74
2023/05/31 06:46:45;;;;;;;10.85;5.30;;;;;;;26.33;100.00;101173.31;2087162;28;20841;-75
2023/05/31 06:48:26;;;;;;;8.80;4.95;;;;;;;26.43;100.00;101163.84;2089820;28;20037;-74
2023/05/31 06:50:08;;;;;;;8.65;4.63;;;;;;;26.39;100.00;101167.63;2089721;28;20045;-74
2023/05/31 06:51:51;;;;;;;13.25;6.32;;;;;;;26.21;100.00;101161.16;2081103;28;20560;-73
2023/05/31 06:53:26;;;;;;;11.32;5.35;;;;;;;26.03;100.00;101157.41;2084104;28;20521;-74
2023/05/31 06:54:59;;;;;;;10.82;6.30;;;;;;;25.87;100.00;101148.16;2072625;28;20062;-74
2023/05/31 06:56:21;;;;;;;13.40;6.07;;;;;;;25.85;100.00;101149.16;2077008;28;20140;-74
2023/05/31 06:57:45;;;;;;;10.32;5.68;;;;;;;26.01;100.00;101153.88;2083834;28;20041;-74
2023/05/31 06:59:07;;;;;;;8.98;5.32;;;;;;;26.04;100.00;101150.16;2089052;28;20448;-74
2023/05/31 07:00:30;;;;;;;7.75;4.63;;;;;;;26.23;100.00;101147.56;2080806;28;20069;-73
2023/05/31 07:01:54;;;;;;;9.50;5.63;;;;;;;26.44;100.00;101146.66;2087833;28;20675;-74
2023/05/31 07:03:16;;;;;;;8.35;4.97;;;;;;;26.49;100.00;101145.50;2080853;28;20522;-74
2023/05/31 07:04:39;;;;;;;8.30;5.70;;;;;;;26.51;100.00;101148.16;2075724;28;20061;-74
2023/05/31 07:06:00;;;;;;;10.63;6.03;;;;;;;26.47;100.00;101141.97;2083574;28;20052;-74
2023/05/31 07:07:23;;;;;;;8.63;5.82;;;;;;;26.35;100.00;101136.22;2084889;28;20041;-74
2023/05/31 07:08:46;;;;;;;11.20;5.80;;;;;;;26.21;100.00;101147.59;2070318;28;20037;-74
2023/05/31 07:10:21;;;;;;;10.70;5.85;;;;;;;26.12;100.00;101150.72;2087619;28;20053;-73
2023/05/31 07:11:43;;;;;;;10.57;5.63;;;;;;;26.09;100.00;101146.31;2083727;28;20103;-74
2023/05/31 07:13:08;;;;;;;11.48;5.40;;;;;;;26.11;100.00;101151.66;2086672;28;20064;-73
2023/05/31 07:14:31;;;;;;;8.75;4.70;;;;;;;26.11;100.00;101154.38;2078201;28;20091;-74
2023/05/31 07:15:54;;;;;;;8.85;5.68;;;;;;;26.08;100.00;101149.06;2092002;28;20052;-74
2023/05/31 07:17:16;;;;;;;8.15;5.13;;;;;;;26.08;100.00;101141.84;2080917;28;20524;-74
2023/05/31 07:18:39;;;;;;;9.63;5.50;;;;;;;26.13;100.00;101139.81;2078506;28;20046;-74
2023/05/31 07:20:02;;;;;;;8.73;5.00;;;;;;;26.20;100.00;101135.91;2075353;28;20055;-73
2023/05/31 07:21:24;;;;;;;5.53;3.88;;;;;;;26.24;100.00;101135.78;2077932;28;20085;-73
2023/05/31 07:22:47;;;;;;;7.35;4.75;;;;;;;26.26;100.00;101131.19;2083838;28;20045;-74
2023/05/31 07:24:10;;;;;;;9.55;4.97;;;;;;;26.32;100.00;101134.50;2086384;28;20569;-74
2023/05/31 07:25:32;;;;;;;8.95;4.78;;;;;;;26.34;100.00;101129.03;2087157;28;20041;-74
2023/05/31 07:26:55;;;;;;;11.80;4.72;;;;;;;26.36;100.00;101133.44;2085169;28;20487;-74
2023/05/31 07:28:19;;;;;;;8.55;4.10;;;;;;;26.40;100.00;101145.00;2091679;28;20041;-75
2023/05/31 07:29:42;;;;;;;9.35;4.43;;;;;;;26.42;99.42;101148.53;2082780;28;20433;-74
2023/05/31 07:31:04;;;;;;;8.32;4.30;;;;;;;26.46;98.39;101134.78;2085072;28;20037;-74
2023/05/31 07:32:28;;;;;;;8.48;4.20;;;;;;;26.62;99.18;101134.13;2086248;28;20063;-74
2023/05/31 07:33:50;;;;;;;7.65;4.22;;;;;;;26.71;98.14;101136.44;2085252;28;20091;-73
2023/05/31 07:35:12;;;;;;;9.95;4.68;;;;;;;26.67;97.62;101132.06;2079786;28;20056;-74
2023/05/31 07:36:35;;;;;;;9.73;4.45;;;;;;;26.58;96.29;101130.69;2086019;28;20102;-75
2023/05/31 07:37:57;;;;;;;6.68;4.00;;;;;;;26.50;95.98;101130.13;2092268;28;20139;-76
2023/05/31 07:39:23;;;;;;;9.20;3.78;;;;;;;26.46;96.20;101134.78;2086302;28;20052;-76
2023/05/31 07:40:45;;;;;;;8.05;4.03;;;;;;;26.52;97.90;101128.22;2085621;28;20057;-76
2023/05/31 07:42:08;;;;;;;6.45;3.30;;;;;;;26.69;99.30;101136.50;2080351;28;20107;-75
2023/05/31 07:43:32;;;;;;;8.80;3.65;;;;;;;26.91;97.38;101144.56;2079699;28;20493;-75
2023/05/31 07:44:54;;;;;;;7.82;3.92;;;;;;;27.07;94.62;101131.16;2087953;28;20467;-76
2023/05/31 07:46:17;;;;;;;9.10;3.47;;;;;;;27.18;94.13;101137.81;2086629;28;20041;-76
2023/05/31 07:47:39;;;;;;;8.60;3.70;;;;;;;27.29;92.88;101130.09;2074447;28;20061;-76
2023/05/31 07:49:02;;;;;;;6.32;3.75;;;;;;;27.42;92.18;101137.63;2080551;28;20049;-76
2023/05/31 07:50:25;;;;;;;7.03;3.92;;;;;;;27.49;90.83;101133.66;2085143;28;20044;-76
2023/05/31 07:51:47;;;;;;;6.80;3.50;;;;;;;27.42;85.88;101135.81;2083940;28;20358;-76
2023/05/31 07:53:10;;;;;;;10.38;3.72;;;;;;;27.27;84.18;101133.81;2079121;28;20667;-76
2023/05/31 07:54:33;;;;;;;8.20;3.78;;;;;;;27.16;85.10;101134.34;2081591;28;20547;-75
2023/05/31 07:55:55;;;;;;;8.63;4.10;;;;;;;27.07;84.17;101137.47;2085358;28;20047;-76
2023/05/31 07:57:18;;;;;;;10.02;3.80;;;;;;;26.98;84.44;101133.34;2084515;28;20049;-75
2023/05/31 07:58:41;;;;;;;8.05;4.13;;;;;;;27.00;84.08;101135.09;2084640;28;20040;-75
2023/05/31 08:00:05;;;;;;;8.45;3.80;;;;;;;26.98;83.58;101137.03;2084269;28;20056;-75
2023/05/31 08:01:35;;;;;;;7.35;3.70;;;;;;;26.98;84.93;101133.34;2093508;28;20057;-76
2023/05/31 08:02:58;;;;;;;10.52;4.43;;;;;;;27.07;89.67;101134.75;2080894;28;20049;-76
2023/05/31 08:04:21;;;;;;;8.75;4.13;;;;;;;27.14;93.63;101132.63;2088532;28;20052;-76
2023/05/31 08:05:45;;;;;;;10.27;4.45;;;;;;;27.20;98.36;101133.22;2080379;28;20042;-76
2023/05/31 08:07:07;;;;;;;8.32;4.97;;;;;;;27.15;100.00;101129.84;2067707;28;20400;-76
2023/05/31 08:08:32;;;;;;;10.02;4.75;;;;;;;27.08;100.00;101128.38;2080896;28;20204;-76
2023/05/31 08:09:55;;;;;;;8.32;4.60;;;;;;;26.98;100.00;101127.91;2086056;28;20045;-76
2023/05/31 08:11:17;;;;;;;9.90;4.90;;;;;;;26.87;100.00;101127.50;2069991;28;20123;-76
2023/05/31 08:12:40;;;;;;;6.32;4.40;;;;;;;26.83;100.00;101134.03;2085335;28;20049;-76
2023/05/31 08:14:05;;;;;;;8.65;5.13;;;;;;;26.87;100.00;101127.50;2079713;28;20045;-76
2023/05/31 08:15:28;;;;;;;8.85;5.07;;;;;;;27.04;100.00;101132.19;2084051;28;20441;-77
2023/05/31 08:16:50;;;;;;;9.23;5.13;;;;;;;27.20;100.00;101130.50;2077891;28;20105;-76
2023/05/31 08:18:13;;;;;;;11.93;5.10;;;;;;;27.35;100.00;101124.38;2082282;28;20038;-75
2023/05/31 08:19:36;;;;;;;8.52;4.30;;;;;;;27.47;100.00;101124.72;2083481;28;20064;-75
2023/05/31 08:20:58;;;;;;;10.27;4.40;;;;;;;27.53;100.00;101124.44;2086224;28;20127;-76
2023/05/31 08:22:20;;;;;;;7.45;4.50;;;;;;;27.50;100.00;101125.47;2072821;28;20618;-76
2023/05/31 08:23:43;;;;;;;11.25;4.07;;;;;;;27.43;100.00;101115.88;2075120;28;20053;-75
2023/05/31 08:25:06;;;;;;;8.82;4.70;;;;;;;27.34;100.00;101117.19;2075498;28;20057;-76
2023/05/31 08:26:29;;;;;;;8.10;4.35;;;;;;;27.35;100.00;101109.94;2079605;28;20060;-75
2023/05/31 08:27:51;;;;;;;8.68;4.40;;;;;;;27.30;100.00;101112.00;2082576;28;20103;-75
2023/05/31 08:29:15;;;;;;;9.90;4.75;;;;;;;27.21;100.00;101107.00;2077482;28;20041;-76
2023/05/31 08:30:38;;;;;;;9.13;4.38;;;;;;;27.14;100.00;101100.09;2075010;28;20049;-75
2023/05/31 08:32:00;;;;;;;9.43;4.72;;;;;;;27.12;100.00;101096.56;2082328;28;20131;-75
2023/05/31 08:33:23;;;;;;;8.07;4.30;;;;;;;27.12;100.00;101097.44;2081836;28;20119;-74
2023/05/31 08:34:45;;;;;;;8.88;4.10;;;;;;;27.13;100.00;101090.22;2084516;28;20049;-74
2023/05/31 08:36:08;;;;;;;8.52;4.53;;;;;;;27.14;100.00;101100.09;2078211;28;20052;-75
2023/05/31 08:37:31;;;;;;;8.80;4.32;;;;;;;27.14;100.00;101098.28;2074999;28;20037;-75
2023/05/31 08:38:54;;;;;;;7.85;4.53;;;;;;;27.31;100.00;101098.31;2070822;28;20061;-75
2023/05/31 08:40:17;;;;;;;7.60;3.90;;;;;;;27.54;100.00;101099.09;2083144;28;20393;-75
2023/05/31 08:41:48;;;;;;;8.65;4.30;;;;;;;27.77;100.00;101098.81;2077180;28;20092;-75
2023/05/31 08:43:20;;;;;;;9.98;4.93;;;;;;;27.83;100.00;101105.78;2074849;28;20497;-75
2023/05/31 08:44:44;;;;;;;9.10;4.35;;;;;;;27.86;100.00;101102.91;2090430;28;20048;-75
2023/05/31 08:46:08;;;;;;;10.27;4.47;;;;;;;27.91;100.00;101100.81;2084180;28;20040;-77
2023/05/31 08:47:37;;;;;;;9.00;4.70;;;;;;;28.00;100.00;101108.50;2085552;28;20064;-75
2023/05/31 08:49:07;;;;;;;7.00;3.90;;;;;;;28.08;100.00;101104.47;2086520;28;20041;-75
2023/05/31 08:50:31;;;;;;;8.43;4.32;;;;;;;28.24;98.78;101106.38;2083623;28;20052;-75
2023/05/31 08:51:56;;;;;;;10.23;3.85;;;;;;;28.37;97.64;101099.34;2084031;28;20052;-76
2023/05/31 08:53:20;;;;;;;7.93;4.00;;;;;;;28.51;96.88;101105.81;2084874;28;20044;-76
2023/05/31 08:54:44;;;;;;;7.32;3.83;;;;;;;28.60;93.54;101111.72;2077080;28;20049;-75
2023/05/31 08:56:08;;;;;;;7.22;4.40;;;;;;;28.66;92.15;101109.56;2083060;28;20049;-76
2023/05/31 08:57:33;;;;;;;7.53;3.80;;;;;;;28.73;94.21;101107.38;2085600;28;20048;-75
2023/05/31 08:58:56;;;;;;;7.88;3.88;;;;;;;28.79;94.66;101109.81;2082559;28;20084;-76
2023/05/31 09:00:21;;;;;;;9.48;4.65;;;;;;;28.86;94.53;101108.50;2075210;28;20195;-75
2023/05/31 09:01:44;;;;;;;6.90;3.85;;;;;;;28.93;95.01;101110.81;2083065;28;20528;-75
2023/05/31 09:03:07;;;;;;;8.48;3.92;;;;;;;29.03;94.31;101115.72;2077392;28;20033;-75
2023/05/31 09:04:30;;;;;;;8.65;4.22;;;;;;;29.03;93.30;101105.72;2080255;28;20166;-74
2023/05/31 09:05:53;;;;;;;8.65;4.30;;;;;;;28.99;93.64;101109.59;2085432;28;20052;-75
2023/05/31 09:07:14;;;;;;;8.45;4.15;;;;;;;28.93;93.72;101105.38;2085679;28;20052;-75
2023/05/31 09:08:37;;;;;;;8.15;4.90;;;;;;;28.90;94.23;101107.38;2085403;28;20460;-76
2023/05/31 09:10:02;;;;;;;8.40;4.32;;;;;;;28.89;94.54;101106.47;2080367;28;20048;-76
2023/05/31 09:11:25;;;;;;;8.70;4.63;;;;;;;28.82;93.65;101110.50;2084022;28;20045;-76
2023/05/31 09:12:48;;;;;;;7.53;3.90;;;;;;;28.74;93.39;101103.72;2091237;28;20057;-76
2023/05/31 09:14:10;;;;;;;7.82;4.20;;;;;;;28.68;93.31;101107.66;2086207;28;20090;-76
2023/05/31 09:15:37;;;;;;;8.10;4.10;;;;;;;28.61;92.08;101106.22;2071942;28;20049;-75
2023/05/31 09:17:00;;;;;;;7.90;4.32;;;;;;;28.52;92.38;101115.72;2088809;28;20504;-75
2023/05/31 09:18:29;;;;;;;8.38;4.70;;;;;;;28.45;92.98;101110.69;2087474;28;20044;-75
2023/05/31 09:19:53;;;;;;;11.48;4.68;;;;;;;28.44;94.60;101115.25;2086236;28;20107;-76
2023/05/31 09:21:16;;;;;;;13.88;5.13;;;;;;;28.47;96.03;101109.66;2079429;28;20077;-75
2023/05/31 09:22:39;;;;;;;11.07;5.45;;;;;;;28.51;97.29;101100.38;2084167;28;20045;-75
2023/05/31 09:24:02;;;;;;;10.45;5.03;;;;;;;28.50;96.73;101104.06;2085757;28;20067;-75
2023/05/31 09:25:24;;;;;;;11.55;5.10;;;;;;;28.49;96.35;101102.28;2079644;28;20490;-75
2023/05/31 09:26:48;;;;;;;6.18;4.40;;;;;;;28.49;95.91;101095.97;2077324;28;20049;-75
2023/05/31 09:28:11;;;;;;;10.57;5.13;;;;;;;28.48;95.06;101094.25;2082231;28;20476;-75
2023/05/31 09:29:37;;;;;;;9.10;4.93;;;;;;;28.49;93.94;101093.25;2086480;28;20069;-76
2023/05/31 09:31:06;;;;;;;7.93;4.65;;;;;;;28.50;91.09;101095.91;2087187;28;20496;-76
2023/05/31 09:32:29;;;;;;;9.45;4.25;;;;;;;28.52;90.28;101087.69;2078136;28;20219;-77
2023/05/31 09:33:54;;;;;;;9.25;4.70;;;;;;;28.51;89.32;101088.63;2082656;28;20037;-76
2023/05/31 09:35:20;;;;;;;9.15;4.72;;;;;;;28.49;89.67;101082.41;2082954;28;20419;-75
2023/05/31 09:36:44;;;;;;;10.27;4.78;;;;;;;28.44;90.50;101082.66;2084064;28;20397;-76
2023/05/31 09:38:07;;;;;;;8.02;5.05;;;;;;;28.41;90.02;101082.84;2083641;28;20061;-76
2023/05/31 09:39:31;;;;;;;7.75;4.28;;;;;;;28.41;88.12;101084.66;2081894;28;20171;-75
2023/05/31 09:40:54;;;;;;;6.72;4.47;;;;;;;28.45;86.54;101084.41;2079750;28;20073;-75
2023/05/31 09:42:16;;;;;;;9.90;4.53;;;;;;;28.52;85.25;101087.69;2080177;28;20061;-75
2023/05/31 09:43:44;;;;;;;8.77;4.93;;;;;;;28.60;83.73;101087.28;2083019;28;20540;-75
2023/05/31 09:45:07;;;;;;;9.68;4.63;;;;;;;28.62;81.62;101088.06;2077460;28;20038;-75
2023/05/31 09:46:31;;;;;;;7.97;4.32;;;;;;;28.64;79.25;101080.69;2085369;28;20608;-74
2023/05/31 09:47:54;;;;;;;7.35;3.90;;;;;;;28.66;78.71;101086.94;2086166;28;20044;-74
2023/05/31 09:49:16;;;;;;;9.52;4.75;;;;;;;28.66;80.62;101076.94;2085529;28;20086;-74
2023/05/31 09:50:39;;;;;;;11.82;4.88;;;;;;;28.66;83.86;101076.94;2093643;28;20044;-74
2023/05/31 09:52:02;;;;;;;7.32;4.88;;;;;;;28.70;85.36;101067.66;2079876;28;20063;-74
2023/05/31 09:53:25;;;;;;;9.75;5.28;;;;;;;28.72;84.73;101064.84;2084100;28;20422;-75
2023/05/31 09:54:48;;;;;;;10.82;4.40;;;;;;;28.75;84.76;101071.03;2080728;28;20045;-75
2023/05/31 09:56:11;;;;;;;7.95;4.55;;;;;;;28.73;83.18;101067.50;2074692;28;20057;-74
2023/05/31 09:57:40;;;;;;;10.75;4.80;;;;;;;28.75;83.62;101065.59;2073579;28;20096;-74
2023/05/31 09:59:04;;;;;;;8.32;4.65;;;;;;;28.77;83.72;101065.50;2084141;28;20040;-75
2023/05/31 10:00:27;;;;;;;10.85;4.93;;;;;;;28.79;82.59;101066.31;2071007;28;20120;-76